Time;durP1;ratioP1;P1;durP2;ratioP2;P2;SDS_P1;SDS_P2;PMS_P1;PMS_P2;Temp;Humidity;BMP_temperature;BMP_pressure;BME280_temperature;BME280_humidity;BME280_pressure;Samples;Min_cycle;Max_cycle;Signal;HPM_P1;HPM_P2
2023/01/11 00:01:11;;;;;;;1.73;0.20;;;20.80;53.70;;;;;;5067386;28;20041;-67
2023/01/11 00:03:38;;;;;;;5.40;0.45;;;20.80;53.70;;;;;;5067954;28;20040;-67
2023/01/11 00:06:06;;;;;;;0.85;0.22;;;20.80;53.70;;;;;;5068230;28;20051;-67
2023/01/11 00:08:33;;;;;;;3.03;0.30;;;20.80;53.70;;;;;;5067858;28;20047;-66
2023/01/11 00:11:01;;;;;;;4.82;1.30;;;20.70;53.60;;;;;;5068313;28;20090;-65
2023/01/11 00:13:30;;;;;;;0.80;0.17;;;20.80;53.70;;;;;;5068132;28;20509;-66
2023/01/11 00:15:57;;;;;;;3.58;1.10;;;20.80;53.70;;;;;;5066661;28;20041;-66
2023/01/11 00:18:24;;;;;;;0.30;0.30;;;20.80;53.70;;;;;;5067694;28;20131;-66
2023/01/11 00:20:52;;;;;;;3.72;0.50;;;20.70;53.60;;;;;;5068243;28;20048;-67
2023/01/11 00:23:18;;;;;;;1.65;0.10;;;20.80;53.70;;;;;;5067440;28;20036;-68
2023/01/11 00:25:45;;;;;;;1.80;0.10;;;20.80;53.70;;;;;;5068194;28;20041;-67
2023/01/11 00:28:12;;;;;;;0.90;0.10;;;20.80;53.70;;;;;;5067743;28;20040;-64
2023/01/11 00:30:41;;;;;;;0.65;0.22;;;20.70;53.60;;;;;;5051787;28;20041;-65
2023/01/11 00:33:11;;;;;;;5.35;0.10;;;20.70;54.30;;;;;;5047313;28;20600;-65
2023/01/11 00:35:38;;;;;;;1.95;0.20;;;20.80;53.70;;;;;;5047622;28;20063;-66
2023/01/11 00:38:05;;;;;;;2.25;0.20;;;20.70;53.70;;;;;;5053686;28;20399;-69
2023/01/11 00:40:32;;;;;;;2.45;1.00;;;20.70;53.70;;;;;;5067670;28;20119;-65
2023/01/11 00:48:35;;;;;;;1.45;0.10;;;20.70;53.80;;;;;;5005345;28;20119;-68
2023/01/11 00:51:02;;;;;;;1.85;0.10;;;20.70;53.90;;;;;;4989401;28;20042;-69
2023/01/11 00:53:29;;;;;;;0.55;0.20;;;20.70;53.90;;;;;;5005309;28;20049;-69
2023/01/11 00:55:56;;;;;;;1.85;0.10;;;20.70;53.90;;;;;;5005075;28;20538;-68
2023/01/11 00:58:23;;;;;;;0.98;0.17;;;20.70;53.90;;;;;;5004991;28;20050;-67
2023/01/11 01:00:51;;;;;;;0.20;0.10;;;20.70;53.90;;;;;;5005368;28;20050;-69
2023/01/11 01:03:18;;;;;;;1.38;0.20;;;20.70;54.60;;;;;;5004616;28;20049;-69
2023/01/11 01:05:45;;;;;;;2.45;0.10;;;20.70;54.00;;;;;;5005063;28;20046;-69
2023/01/11 01:08:12;;;;;;;1.25;0.00;;;20.70;54.00;;;;;;5004707;28;20065;-62
2023/01/11 01:10:39;;;;;;;5.25;0.10;;;20.70;54.70;;;;;;5004805;28;20499;-61
2023/01/11 01:15:58;;;;;;;0.47;0.00;;;20.60;54.20;;;;;;5004553;28;20442;-61
2023/01/11 01:18:25;;;;;;;3.13;0.20;;;20.60;54.30;;;;;;4991947;28;20426;-61
2023/01/11 01:20:52;;;;;;;10.82;0.15;;;20.60;54.40;;;;;;4984854;28;20057;-61
2023/01/11 01:23:19;;;;;;;2.55;0.10;;;20.60;54.60;;;;;;5037283;28;20076;-61
2023/01/11 01:25:46;;;;;;;2.10;0.10;;;20.60;54.70;;;;;;5046849;28;20505;-61
2023/01/11 01:28:13;;;;;;;0.60;0.00;;;20.50;54.70;;;;;;5046407;28;20586;-60
2023/01/11 01:30:40;;;;;;;3.05;0.15;;;20.50;54.80;;;;;;5046332;28;20033;-59
2023/01/11 01:33:08;;;;;;;0.70;0.00;;;20.50;54.80;;;;;;5046031;28;20141;-59
2023/01/11 01:35:37;;;;;;;1.50;0.10;;;20.50;54.90;;;;;;5045874;28;20123;-60
2023/01/11 01:38:04;;;;;;;0.85;0.03;;;20.50;55.00;;;;;;5059048;28;20086;-61
2023/01/11 01:40:31;;;;;;;2.30;0.10;;;20.50;55.00;;;;;;5066285;28;20041;-61
2023/01/11 01:42:58;;;;;;;0.70;0.10;;;20.50;55.10;;;;;;5065905;28;20086;-60
2023/01/11 01:45:27;;;;;;;0.35;0.17;;;20.50;55.10;;;;;;5065879;28;20047;-60
2023/01/11 01:48:00;;;;;;;1.27;0.45;;;20.50;55.10;;;;;;5065623;28;20123;-62
2023/01/11 01:50:32;;;;;;;0.32;0.30;;;20.50;55.20;;;;;;5065940;28;20111;-60
2023/01/11 01:53:03;;;;;;;0.10;0.00;;;20.40;55.20;;;;;;5066363;28;20052;-63
2023/01/11 01:55:34;;;;;;;0.30;0.00;;;20.40;55.20;;;;;;5066158;28;20045;-64
2023/01/11 01:58:06;;;;;;;2.05;0.10;;;20.40;55.20;;;;;;5064606;28;20064;-62
2023/01/11 02:00:34;;;;;;;1.98;0.00;;;20.40;55.30;;;;;;5065818;28;20040;-61
2023/01/11 02:03:02;;;;;;;2.65;0.00;;;20.40;55.30;;;;;;5065912;28;20040;-60
2023/01/11 02:05:30;;;;;;;0.20;0.00;;;20.40;55.30;;;;;;5064772;28;20110;-60
2023/01/11 02:07:59;;;;;;;1.73;0.22;;;20.40;55.40;;;;;;5055471;28;20055;-60
2023/01/11 02:10:27;;;;;;;0.63;0.10;;;20.40;55.40;;;;;;5066069;28;20075;-62
2023/01/11 02:12:59;;;;;;;0.17;0.00;;;20.40;55.40;;;;;;5066070;28;20086;-61
2023/01/11 02:15:27;;;;;;;0.30;0.00;;;20.40;55.40;;;;;;5065652;28;20059;-60
2023/01/11 02:17:57;;;;;;;2.08;0.00;;;20.40;55.50;;;;;;5065824;28;20044;-61
2023/01/11 02:20:49;;;;;;;0.55;0.00;;;20.40;55.50;;;;;;5066025;28;20052;-61
2023/01/11 02:23:52;;;;;;;0.40;0.00;;;20.40;55.60;;;;;;5065799;28;20577;-61
2023/01/11 02:26:47;;;;;;;1.25;0.00;;;20.40;55.60;;;;;;5065831;28;20068;-60
2023/01/11 02:29:29;;;;;;;0.10;0.10;;;20.30;55.50;;;;;;5065147;28;20044;-61
2023/01/11 02:32:07;;;;;;;0.20;0.00;;;20.30;55.60;;;;;;5065871;28;20425;-61
2023/01/11 02:34:42;;;;;;;2.45;0.00;;;20.30;55.70;;;;;;5065366;28;20061;-61
2023/01/11 02:37:19;;;;;;;2.20;0.00;;;20.30;55.70;;;;;;5065520;28;20576;-61
2023/01/11 02:39:59;;;;;;;0.30;0.10;;;20.30;55.70;;;;;;5065300;28;20048;-61
2023/01/11 02:45:37;;;;;;;0.00;0.00;;;20.30;55.90;;;;;;5065217;28;20049;-62
2023/01/11 02:48:13;;;;;;;0.00;0.00;;;20.30;55.80;;;;;;5066943;28;20131;-62
2023/01/11 02:50:46;;;;;;;2.65;0.00;;;20.30;55.90;;;;;;5068208;28;20509;-62
2023/01/11 02:53:21;;;;;;;0.30;0.00;;;20.30;55.90;;;;;;5066955;28;20041;-62
2023/01/11 02:55:51;;;;;;;0.00;0.00;;;20.30;56.00;;;;;;5061223;28;20509;-59
2023/01/11 02:58:21;;;;;;;0.50;0.00;;;20.30;56.00;;;;;;5049020;28;20135;-61
2023/01/11 03:00:51;;;;;;;0.80;0.17;;;20.30;56.00;;;;;;5049353;28;20040;-59
2023/01/11 03:03:23;;;;;;;0.00;0.00;;;20.30;56.00;;;;;;5049018;28;20049;-61
2023/01/11 03:05:54;;;;;;;0.00;0.00;;;20.30;56.00;;;;;;5049237;28;20668;-61
2023/01/11 03:08:44;;;;;;;1.08;0.10;;;20.30;56.00;;;;;;5057224;28;20055;-60
2023/01/11 03:12:50;;;;;;;0.05;0.00;;;20.30;56.10;;;;;;5069361;28;20129;-61
2023/01/11 03:14:16;;;;;;;0.10;0.00;;;20.30;56.10;;;;;;5068573;28;20047;-61
2023/01/11 03:16:51;;;;;;;0.60;0.00;;;20.30;56.10;;;;;;5067708;28;20041;-61
2023/01/11 03:19:28;;;;;;;0.10;0.00;;;20.30;56.10;;;;;;5068532;28;20133;-61
2023/01/11 03:22:03;;;;;;;2.00;0.00;;;20.30;56.20;;;;;;5069073;28;20040;-61
2023/01/11 03:24:38;;;;;;;0.10;0.00;;;20.30;56.20;;;;;;5068809;28;20482;-61
2023/01/11 03:27:16;;;;;;;0.00;0.00;;;20.30;56.20;;;;;;5068426;28;20071;-62
2023/01/11 03:29:50;;;;;;;0.00;0.00;;;20.30;56.50;;;;;;5068551;28;20059;-61
2023/01/11 03:32:28;;;;;;;0.08;0.00;;;20.30;56.30;;;;;;5068528;28;20555;-60
2023/01/11 03:35:09;;;;;;;0.00;0.00;;;20.30;56.30;;;;;;5066984;28;20486;-61
2023/01/11 03:37:39;;;;;;;0.13;0.00;;;20.20;56.30;;;;;;5050585;28;20493;-61
2023/01/11 03:40:13;;;;;;;0.00;0.00;;;20.20;56.30;;;;;;5068291;28;20049;-61
2023/01/11 03:45:29;;;;;;;0.15;0.10;;;20.20;56.30;;;;;;5049588;28;20052;-61
2023/01/11 03:48:00;;;;;;;0.00;0.00;;;20.20;56.30;;;;;;5048012;28;20075;-61
2023/01/11 03:50:29;;;;;;;0.35;0.00;;;20.30;56.40;;;;;;5048274;28;20049;-61
2023/01/11 03:52:59;;;;;;;0.40;0.00;;;20.20;56.30;;;;;;5047592;28;20162;-61
2023/01/11 03:55:28;;;;;;;0.00;0.00;;;20.20;56.40;;;;;;5067099;28;20121;-59
2023/01/11 03:57:57;;;;;;;0.00;0.00;;;20.20;56.40;;;;;;5067379;28;20041;-61
2023/01/11 04:00:25;;;;;;;1.88;0.00;;;20.20;56.40;;;;;;5068066;28;20072;-60
2023/01/11 04:02:53;;;;;;;0.68;0.00;;;20.20;56.40;;;;;;5068065;28;20150;-61
2023/01/11 04:05:21;;;;;;;3.70;0.00;;;20.20;56.50;;;;;;5068006;28;20045;-61
2023/01/11 04:07:48;;;;;;;0.03;0.00;;;20.30;56.50;;;;;;5067819;28;20037;-61
2023/01/11 04:10:16;;;;;;;0.68;0.13;;;20.20;56.50;;;;;;5067643;28;20195;-61
2023/01/11 04:12:46;;;;;;;4.35;0.00;;;20.20;56.50;;;;;;5067821;28;20143;-61
2023/01/11 04:15:13;;;;;;;0.20;0.00;;;20.30;56.60;;;;;;5067853;28;20052;-60
2023/01/11 04:17:41;;;;;;;1.65;0.10;;;20.30;56.60;;;;;;5067787;28;20071;-61
2023/01/11 04:20:09;;;;;;;0.68;0.00;;;20.30;56.70;;;;;;5067708;28;20055;-61
2023/01/11 04:22:38;;;;;;;0.80;0.00;;;20.20;56.60;;;;;;5067560;28;20071;-61
2023/01/11 04:25:07;;;;;;;1.65;0.00;;;20.20;56.70;;;;;;5067342;28;20049;-62
2023/01/11 04:27:34;;;;;;;1.42;0.00;;;20.20;56.80;;;;;;5067671;28;20131;-61
2023/01/11 04:30:01;;;;;;;0.20;0.10;;;20.20;56.80;;;;;;5067402;28;20048;-61
2023/01/11 04:32:28;;;;;;;0.43;0.00;;;20.30;56.90;;;;;;5062032;28;20060;-61
2023/01/11 04:34:55;;;;;;;0.75;0.00;;;20.30;56.90;;;;;;5047507;28;20658;-62
2023/01/11 04:37:22;;;;;;;0.65;0.00;;;20.20;56.90;;;;;;5049383;28;20041;-61
2023/01/11 04:39:51;;;;;;;0.10;0.00;;;20.20;56.90;;;;;;5067007;28;20076;-61
2023/01/11 04:42:17;;;;;;;0.00;0.00;;;20.20;56.90;;;;;;5067326;28;20033;-61
2023/01/11 04:44:44;;;;;;;0.93;0.17;;;20.20;56.90;;;;;;5067027;28;20565;-61
2023/01/11 04:47:11;;;;;;;2.83;0.00;;;20.20;56.90;;;;;;5067220;28;20461;-60
2023/01/11 04:49:38;;;;;;;5.25;1.33;;;20.30;57.00;;;;;;5067242;28;20068;-60
2023/01/11 04:52:05;;;;;;;0.57;0.00;;;20.20;56.90;;;;;;5067229;28;20040;-61
2023/01/11 04:54:32;;;;;;;0.63;0.00;;;20.20;56.90;;;;;;5066649;28;20044;-60
2023/01/11 04:57:01;;;;;;;0.25;0.00;;;20.20;56.90;;;;;;5066861;28;20536;-59
2023/01/11 04:59:28;;;;;;;1.42;0.00;;;20.20;57.00;;;;;;5061378;28;20080;-60
2023/01/11 05:01:55;;;;;;;1.75;0.00;;;20.20;57.00;;;;;;5047231;28;20047;-59
2023/01/11 05:04:22;;;;;;;1.35;0.00;;;20.20;57.00;;;;;;5046889;28;20037;-61
2023/01/11 05:06:49;;;;;;;0.00;0.00;;;20.20;57.00;;;;;;5046963;28;20788;-60
2023/01/11 05:09:18;;;;;;;0.20;0.00;;;20.20;57.00;;;;;;5062209;28;20221;-61
2023/01/11 05:11:45;;;;;;;0.00;0.00;;;20.20;57.00;;;;;;5066091;28;20047;-60
2023/01/11 05:14:15;;;;;;;0.30;0.00;;;20.20;57.00;;;;;;5066780;28;20093;-60
2023/01/11 05:16:42;;;;;;;0.00;0.00;;;20.20;57.00;;;;;;5066517;28;20082;-60
2023/01/11 05:19:11;;;;;;;0.35;0.00;;;20.20;57.00;;;;;;5066092;28;20152;-61
2023/01/11 05:21:40;;;;;;;0.00;0.00;;;20.20;57.00;;;;;;5059216;28;20037;-60
2023/01/11 05:24:10;;;;;;;0.00;0.00;;;20.20;57.10;;;;;;5046143;28;20140;-59
2023/01/11 05:26:40;;;;;;;0.10;0.00;;;20.20;57.00;;;;;;5046187;28;20470;-58
2023/01/11 05:29:09;;;;;;;0.00;0.00;;;20.20;57.00;;;;;;5048034;28;20041;-60
2023/01/11 05:31:39;;;;;;;0.03;0.00;;;20.30;57.10;;;;;;5046208;28;20060;-62
2023/01/11 05:34:07;;;;;;;0.10;0.00;;;20.30;57.10;;;;;;5046443;28;20123;-61
2023/01/11 05:36:35;;;;;;;1.27;0.00;;;20.20;57.00;;;;;;5046096;28;20077;-61
2023/01/11 05:39:04;;;;;;;2.20;0.10;;;20.20;57.00;;;;;;5059220;28;20123;-61
2023/01/11 05:41:31;;;;;;;0.00;0.00;;;20.20;57.10;;;;;;5065965;28;20044;-61
2023/01/11 05:46:44;;;;;;;0.00;0.00;;;20.20;57.00;;;;;;5065813;28;20051;-62
2023/01/11 05:49:12;;;;;;;1.27;0.00;;;20.20;57.00;;;;;;5065659;28;20040;-60
2023/01/11 05:51:40;;;;;;;0.13;0.00;;;20.20;57.10;;;;;;5065783;28;20036;-58
2023/01/11 05:54:10;;;;;;;0.00;0.00;;;20.20;57.10;;;;;;5065498;28;20064;-59
2023/01/11 05:56:37;;;;;;;0.20;0.00;;;20.20;57.00;;;;;;5063182;28;20125;-63
2023/01/11 05:59:04;;;;;;;1.30;0.05;;;20.20;57.00;;;;;;5061948;28;20040;-60
2023/01/11 06:01:32;;;;;;;0.15;0.00;;;20.20;57.10;;;;;;5064961;28;20125;-62
2023/01/11 06:04:01;;;;;;;0.80;0.00;;;20.20;57.10;;;;;;5065295;28;20044;-64
2023/01/11 06:06:28;;;;;;;1.45;0.40;;;20.20;57.10;;;;;;5064852;28;20119;-61
2023/01/11 06:08:55;;;;;;;2.95;0.20;;;20.20;57.00;;;;;;5065214;28;20048;-62
2023/01/11 06:11:22;;;;;;;1.08;0.10;;;20.20;57.10;;;;;;5046111;28;20056;-63
2023/01/11 06:13:49;;;;;;;3.90;0.10;;;20.20;57.10;;;;;;5046254;28;20493;-63
2023/01/11 06:16:18;;;;;;;2.75;0.10;;;20.20;57.00;;;;;;5065691;28;20072;-63
2023/01/11 06:18:47;;;;;;;0.82;0.00;;;20.30;57.10;;;;;;5065084;28;20094;-64
2023/01/11 06:21:17;;;;;;;0.28;0.10;;;20.30;57.10;;;;;;5064775;28;20052;-63
2023/01/11 06:23:46;;;;;;;3.53;0.63;;;20.30;57.00;;;;;;5064792;28;20113;-63
2023/01/11 06:26:15;;;;;;;2.08;0.05;;;20.30;57.10;;;;;;5065302;28;20051;-63
2023/01/11 06:28:42;;;;;;;2.97;0.80;;;20.30;57.00;;;;;;5064880;28;20053;-63
2023/01/11 06:31:09;;;;;;;1.73;0.68;;;20.30;57.00;;;;;;5063912;28;20032;-63
2023/01/11 06:33:37;;;;;;;2.08;0.08;;;20.30;57.20;;;;;;5064820;28;20052;-64
2023/01/11 06:36:06;;;;;;;0.30;0.00;;;20.30;57.00;;;;;;5063369;28;20053;-63
2023/01/11 06:38:35;;;;;;;0.70;0.13;;;20.30;57.60;;;;;;5064980;28;20052;-64
2023/01/11 06:41:04;;;;;;;1.58;0.10;;;20.30;57.00;;;;;;5065205;28;20056;-63
2023/01/11 06:43:32;;;;;;;1.00;0.10;;;20.30;57.00;;;;;;5064989;28;20045;-63
2023/01/11 06:45:59;;;;;;;1.00;0.10;;;20.30;57.00;;;;;;5065306;28;20040;-63
2023/01/11 06:48:27;;;;;;;1.65;0.10;;;20.30;57.00;;;;;;5065010;28;20055;-63
2023/01/11 06:50:55;;;;;;;2.47;0.17;;;20.40;57.00;;;;;;5064750;28;20048;-64
2023/01/11 06:53:23;;;;;;;0.98;0.10;;;20.40;57.00;;;;;;5065040;28;20068;-63
2023/01/11 06:55:53;;;;;;;1.88;0.25;;;20.30;56.90;;;;;;5065207;28;20083;-63
2023/01/11 06:58:22;;;;;;;4.20;0.10;;;20.40;56.90;;;;;;5057291;28;20036;-62
2023/01/11 07:00:50;;;;;;;2.80;0.20;;;20.40;56.90;;;;;;5048163;28;20155;-63
2023/01/11 07:03:19;;;;;;;0.85;0.30;;;20.40;56.90;;;;;;5064783;28;20517;-63
2023/01/11 07:05:46;;;;;;;0.98;0.30;;;20.40;56.80;;;;;;5053463;28;20044;-64
2023/01/11 07:08:13;;;;;;;0.73;0.05;;;20.40;56.80;;;;;;5052091;28;20059;-63
2023/01/11 07:10:41;;;;;;;1.05;0.32;;;20.40;56.80;;;;;;5063719;28;20998;-60
2023/01/11 07:13:10;;;;;;;1.30;0.70;;;20.40;56.80;;;;;;5064085;28;20068;-60
2023/01/11 07:15:37;;;;;;;1.90;0.10;;;20.40;56.60;;;;;;5062064;28;20059;-60
2023/01/11 07:18:04;;;;;;;1.67;0.10;;;20.40;56.50;;;;;;5063512;28;20041;-60
2023/01/11 07:20:31;;;;;;;1.85;0.20;;;20.50;56.40;;;;;;5060870;28;20049;-59
2023/01/11 07:22:59;;;;;;;2.58;0.45;;;20.50;56.30;;;;;;5064653;28;20048;-59
2023/01/11 07:25:27;;;;;;;9.13;1.33;;;20.50;56.20;;;;;;5064018;28;20048;-61
2023/01/11 07:27:59;;;;;;;6.13;0.20;;;20.50;56.10;;;;;;5064537;28;20041;-60
2023/01/11 07:30:29;;;;;;;6.68;0.65;;;20.50;56.00;;;;;;5063741;28;20052;-59
2023/01/11 07:32:58;;;;;;;4.60;0.20;;;20.50;55.90;;;;;;5061053;28;20070;-60
2023/01/11 07:35:25;;;;;;;9.93;1.38;;;20.50;55.80;;;;;;5067959;28;20052;-61
2023/01/11 07:37:52;;;;;;;4.55;0.40;;;20.50;55.80;;;;;;5068162;28;20056;-60
2023/01/11 07:40:20;;;;;;;7.80;0.77;;;20.50;55.70;;;;;;5068042;28;20155;-60
2023/01/11 07:45:35;;;;;;;8.05;1.20;;;20.50;55.70;;;;;;5066963;28;20513;-62
2023/01/11 07:48:04;;;;;;;5.03;0.80;;;20.60;55.80;;;;;;5067431;28;20052;-55
2023/01/11 07:50:31;;;;;;;4.63;0.70;;;20.60;55.60;;;;;;5066614;28;20040;-70
2023/01/11 07:52:58;;;;;;;17.20;1.88;;;20.60;55.50;;;;;;5056859;28;20043;-66
2023/01/11 07:55:26;;;;;;;6.80;1.10;;;20.70;56.10;;;;;;5051327;28;20079;-71
2023/01/11 07:57:55;;;;;;;14.80;1.63;;;20.70;56.20;;;;;;5047855;28;20744;-68
2023/01/11 08:00:23;;;;;;;7.00;1.77;;;20.70;56.30;;;;;;5053838;28;20045;-70
2023/01/11 08:02:52;;;;;;;7.95;0.90;;;20.70;56.30;;;;;;5034380;28;20045;-72
2023/01/11 08:05:20;;;;;;;12.23;1.48;;;20.80;56.40;;;;;;5057492;28;20041;-71
2023/01/11 08:07:47;;;;;;;9.68;1.55;;;20.80;56.40;;;;;;5067219;28;20859;-70
2023/01/11 08:10:15;;;;;;;8.32;1.05;;;20.80;56.30;;;;;;5061346;28;20068;-68
2023/01/11 08:15:42;;;;;;;5.03;0.98;;;20.80;56.30;;;;;;5025038;28;20057;-67
2023/01/11 08:18:12;;;;;;;4.70;0.63;;;20.80;56.20;;;;;;5024300;28;20057;-64
2023/01/11 08:20:40;;;;;;;8.82;0.90;;;20.90;56.20;;;;;;5031410;28;20108;-63
2023/01/11 08:23:09;;;;;;;4.70;1.40;;;20.90;56.10;;;;;;5044584;28;20041;-62
2023/01/11 08:25:36;;;;;;;8.30;1.08;;;20.90;56.00;;;;;;5044793;28;20110;-69
2023/01/11 08:28:04;;;;;;;5.78;0.90;;;20.90;55.90;;;;;;5032692;28;20145;-68
2023/01/11 08:30:32;;;;;;;7.05;0.77;;;20.90;55.80;;;;;;5039953;28;20402;-61
2023/01/11 08:33:00;;;;;;;4.93;0.40;;;21.00;55.70;;;;;;5024136;28;20401;-67
2023/01/11 08:35:30;;;;;;;4.35;0.32;;;21.00;55.60;;;;;;5007796;28;20171;-61
2023/01/11 08:37:57;;;;;;;5.80;0.75;;;21.00;55.50;;;;;;5030622;28;20049;-73
2023/01/11 08:40:25;;;;;;;3.60;0.70;;;21.00;55.40;;;;;;5027687;28;20060;-68
2023/01/11 08:42:55;;;;;;;5.50;1.08;;;21.10;55.30;;;;;;5044707;28;20533;-69
2023/01/11 08:45:22;;;;;;;4.85;0.47;;;21.10;55.20;;;;;;5044545;28;20515;-69
2023/01/11 08:47:50;;;;;;;5.45;2.42;;;21.10;55.10;;;;;;5065479;28;20524;-67
2023/01/11 08:50:19;;;;;;;6.45;0.73;;;21.20;55.00;;;;;;5066158;28;20114;-64
2023/01/11 08:52:49;;;;;;;4.88;0.52;;;21.10;55.00;;;;;;5066793;28;20041;-68
2023/01/11 08:55:16;;;;;;;5.05;0.22;;;21.10;54.90;;;;;;5066002;28;20163;-66
2023/01/11 08:57:44;;;;;;;5.20;0.80;;;21.10;54.80;;;;;;5066528;28;20032;-58
2023/01/11 09:00:12;;;;;;;3.42;0.30;;;21.20;54.80;;;;;;5066382;28;20049;-60
2023/01/11 09:02:39;;;;;;;5.47;0.88;;;21.20;54.70;;;;;;5063047;28;20039;-60
2023/01/11 09:05:07;;;;;;;5.68;0.40;;;21.20;54.60;;;;;;5066334;28;20054;-62
2023/01/11 09:07:34;;;;;;;3.63;0.30;;;21.30;54.50;;;;;;5066724;28;20064;-62
2023/01/11 09:10:02;;;;;;;9.43;0.80;;;21.30;54.50;;;;;;5066553;28;20048;-65
2023/01/11 09:12:31;;;;;;;2.28;0.43;;;21.30;54.30;;;;;;5066078;28;20048;-63
2023/01/11 09:14:58;;;;;;;3.38;0.30;;;21.30;54.30;;;;;;5065961;28;20036;-61
2023/01/11 09:17:25;;;;;;;2.80;0.93;;;21.30;54.10;;;;;;5065968;28;20043;-65
2023/01/11 09:19:52;;;;;;;3.05;0.43;;;21.30;54.00;;;;;;5066149;28;20048;-64
2023/01/11 09:22:19;;;;;;;4.45;0.68;;;21.40;54.00;;;;;;5057597;28;20509;-59
2023/01/11 09:24:46;;;;;;;5.75;0.32;;;21.40;53.90;;;;;;5060859;28;21000;-63
2023/01/11 09:27:15;;;;;;;2.55;0.30;;;21.40;53.80;;;;;;5062478;28;20550;-64
2023/01/11 09:29:42;;;;;;;4.70;0.93;;;21.50;53.70;;;;;;5066158;28;20127;-63
2023/01/11 09:32:09;;;;;;;4.10;0.82;;;21.50;53.70;;;;;;5065987;28;20405;-60
2023/01/11 09:34:36;;;;;;;5.63;1.05;;;21.50;53.60;;;;;;5066044;28;20550;-63
2023/01/11 09:37:05;;;;;;;6.78;1.00;;;21.50;53.60;;;;;;5066243;28;20065;-57
2023/01/11 09:39:33;;;;;;;4.80;0.47;;;21.50;53.60;;;;;;5066118;28;20416;-56
2023/01/11 09:42:34;;;;;;;4.25;0.40;;;21.50;53.50;;;;;;5065895;28;20089;-58
2023/01/11 09:45:08;;;;;;;3.03;0.30;;;21.50;53.50;;;;;;5065337;28;20062;-58
2023/01/11 09:47:40;;;;;;;1.70;0.63;;;21.50;53.40;;;;;;5066209;28;20051;-56
2023/01/11 09:50:14;;;;;;;2.97;0.60;;;21.50;53.40;;;;;;5064553;28;20047;-61
2023/01/11 09:52:44;;;;;;;6.43;0.20;;;21.50;53.30;;;;;;5065949;28;20142;-68
2023/01/11 09:55:18;;;;;;;2.92;0.28;;;21.50;53.20;;;;;;5047758;28;20044;-65
2023/01/11 09:57:58;;;;;;;1.15;0.47;;;21.50;53.00;;;;;;5043684;28;20059;-65
2023/01/11 10:00:33;;;;;;;2.78;0.10;;;21.50;52.90;;;;;;5045866;28;20044;-73
2023/01/11 10:03:22;;;;;;;2.63;0.30;;;21.50;52.80;;;;;;5064482;28;20044;-56
2023/01/11 10:06:05;;;;;;;5.22;0.20;;;21.60;52.80;;;;;;5065653;28;20566;-50
2023/01/11 10:08:48;;;;;;;4.60;0.93;;;21.60;52.70;;;;;;5065384;28;20045;-60
2023/01/11 10:11:30;;;;;;;15.27;0.20;;;21.60;52.70;;;;;;5047642;28;20044;-63
2023/01/11 10:14:07;;;;;;;5.07;1.55;;;21.60;52.60;;;;;;5047240;28;20068;-63
2023/01/11 10:16:43;;;;;;;1.67;1.00;;;21.60;52.60;;;;;;5044417;28;20045;-66
2023/01/11 10:19:17;;;;;;;7.07;0.98;;;21.60;52.50;;;;;;5045436;28;20071;-72
2023/01/11 10:21:49;;;;;;;7.80;0.30;;;21.60;52.40;;;;;;5045752;28;20499;-65
2023/01/11 10:24:27;;;;;;;6.50;0.63;;;21.60;52.30;;;;;;5044338;28;20056;-67
2023/01/11 10:26:57;;;;;;;3.05;1.25;;;21.60;52.10;;;;;;5057284;28;20048;-66
2023/01/11 10:29:50;;;;;;;2.63;0.40;;;21.60;52.00;;;;;;5064611;28;20044;-69
2023/01/11 10:38:21;;;;;;;3.33;0.35;;;21.60;51.80;;;;;;5051885;28;20036;-75
2023/01/11 10:41:10;;;;;;;6.22;0.93;;;21.50;51.70;;;;;;5065844;28;20047;-69
2023/01/11 10:43:41;;;;;;;2.88;0.20;;;21.60;51.70;;;;;;5063857;28;20068;-71
2023/01/11 10:46:13;;;;;;;2.20;0.30;;;21.50;51.70;;;;;;5063995;28;20079;-56
2023/01/11 10:48:42;;;;;;;2.22;0.30;;;21.50;51.60;;;;;;5063859;28;20129;-63
2023/01/11 10:51:23;;;;;;;0.70;0.38;;;21.50;51.70;;;;;;5064721;28;20051;-68
2023/01/11 10:54:00;;;;;;;5.90;0.35;;;21.60;51.70;;;;;;5060980;28;20036;-64
2023/01/11 10:56:39;;;;;;;3.58;0.10;;;21.60;51.70;;;;;;5063901;28;20040;-62
2023/01/11 10:59:42;;;;;;;1.73;0.52;;;21.50;51.60;;;;;;5064863;28;20080;-72
2023/01/11 11:02:20;;;;;;;5.25;0.30;;;21.60;51.50;;;;;;5058404;28;20513;-68
2023/01/11 11:05:00;;;;;;;7.07;1.20;;;21.60;51.70;;;;;;5062961;28;20128;-62
2023/01/11 11:07:35;;;;;;;4.20;0.20;;;21.60;51.60;;;;;;5064473;28;20041;-63
2023/01/11 11:10:14;;;;;;;5.00;1.13;;;21.60;51.50;;;;;;5067949;28;20074;-66
2023/01/11 11:12:49;;;;;;;2.42;0.32;;;21.70;51.40;;;;;;5064323;28;20719;-63
2023/01/11 11:15:24;;;;;;;2.13;0.55;;;21.70;51.40;;;;;;5068644;28;20509;-64
2023/01/11 11:17:53;;;;;;;1.90;0.10;;;21.70;51.40;;;;;;5069112;28;20036;-63
2023/01/11 11:20:23;;;;;;;4.40;1.02;;;21.70;51.20;;;;;;5065504;28;20531;-63
2023/01/11 11:22:51;;;;;;;2.38;0.35;;;21.80;51.30;;;;;;5048771;28;20041;-62
2023/01/11 11:25:22;;;;;;;10.80;0.30;;;21.80;51.30;;;;;;5048125;28;20152;-64
2023/01/11 11:27:52;;;;;;;24.10;0.85;;;21.80;51.30;;;;;;5057680;28;20044;-61
2023/01/11 11:30:28;;;;;;;10.00;1.08;;;21.80;51.40;;;;;;5066040;28;20121;-61
2023/01/11 11:32:59;;;;;;;2.58;1.13;;;21.90;51.20;;;;;;5067690;28;20109;-61
2023/01/11 11:35:36;;;;;;;4.85;0.40;;;22.00;51.10;;;;;;5067909;28;20076;-61
2023/01/11 11:38:04;;;;;;;6.88;0.43;;;22.00;50.90;;;;;;5068527;28;20119;-61
2023/01/11 11:40:34;;;;;;;7.45;0.30;;;22.00;50.70;;;;;;5067798;28;20417;-61
2023/01/11 11:43:21;;;;;;;4.68;0.57;;;22.00;50.50;;;;;;5068078;28;20538;-60
2023/01/11 11:45:53;;;;;;;3.50;0.73;;;22.00;50.20;;;;;;5068117;28;20102;-61
2023/01/11 11:48:23;;;;;;;3.83;0.38;;;22.00;50.10;;;;;;5068197;28;20051;-61
2023/01/11 11:50:52;;;;;;;4.63;0.30;;;22.00;50.00;;;;;;5049992;28;20132;-61
2023/01/11 11:53:34;;;;;;;5.30;0.57;;;22.10;49.80;;;;;;5049753;28;20041;-61
2023/01/11 11:56:14;;;;;;;3.15;0.30;;;22.10;49.50;;;;;;5047712;28;20111;-61
2023/01/11 11:58:42;;;;;;;6.30;0.40;;;22.10;49.60;;;;;;5048063;28;20129;-61
2023/01/11 12:01:21;;;;;;;4.80;0.40;;;22.10;49.60;;;;;;5051391;28;20526;-60
2023/01/11 12:03:50;;;;;;;4.60;0.57;;;22.10;49.40;;;;;;5068245;28;20044;-61
2023/01/11 12:06:23;;;;;;;1.38;1.08;;;22.10;49.40;;;;;;5064314;28;20055;-61
2023/01/11 12:08:50;;;;;;;6.03;0.50;;;22.10;49.40;;;;;;5058741;28;20148;-55
2023/01/11 12:11:23;;;;;;;11.02;0.98;;;22.10;49.50;;;;;;5047171;28;20472;-61
2023/01/11 12:14:01;;;;;;;4.03;0.30;;;22.20;49.60;;;;;;5047779;28;20048;-55
2023/01/11 12:16:39;;;;;;;8.93;0.43;;;22.20;49.60;;;;;;5047253;28;20132;-61
2023/01/11 12:19:25;;;;;;;4.43;0.93;;;22.20;49.60;;;;;;5047159;28;20041;-62
2023/01/11 12:21:52;;;;;;;;;;;22.20;49.60;;;;;;5047929;28;20460;-62
2023/01/11 12:24:21;;;;;;;6.10;0.70;;;22.20;49.70;;;;;;5065230;28;19920;-61
2023/01/11 12:26:57;;;;;;;1.02;0.20;;;22.20;49.80;;;;;;5067175;28;20059;-61
2023/01/11 12:29:48;;;;;;;8.65;0.20;;;22.20;49.60;;;;;;5067078;28;20048;-60
2023/01/11 12:32:36;;;;;;;3.78;0.60;;;22.30;49.60;;;;;;5067270;28;20071;-60
2023/01/11 12:35:23;;;;;;;3.00;0.40;;;22.30;49.40;;;;;;5066762;28;20147;-61
2023/01/11 12:38:13;;;;;;;3.58;0.75;;;22.30;49.30;;;;;;5064858;28;20097;-59
2023/01/11 12:40:46;;;;;;;5.45;1.67;;;22.30;49.40;;;;;;5047111;28;20051;-59
2023/01/11 12:43:28;;;;;;;4.03;0.30;;;22.30;49.40;;;;;;5063695;28;20064;-61
2023/01/11 12:46:02;;;;;;;3.80;0.43;;;22.40;49.40;;;;;;5067153;28;20048;-59
2023/01/11 12:48:42;;;;;;;3.20;0.65;;;22.40;49.50;;;;;;5066279;28;20523;-61
2023/01/11 12:51:21;;;;;;;2.30;0.10;;;22.50;49.50;;;;;;5065073;28;20037;-60
2023/01/11 12:54:08;;;;;;;5.00;0.50;;;22.50;49.40;;;;;;5058844;28;20420;-59
2023/01/11 12:56:47;;;;;;;5.97;0.20;;;22.50;49.20;;;;;;5063309;28;20106;-62
2023/01/11 12:59:29;;;;;;;3.35;0.20;;;22.50;49.10;;;;;;5063479;28;20568;-61
2023/01/11 13:02:10;;;;;;;7.43;1.38;;;22.50;49.00;;;;;;5064462;28;20072;-60
2023/01/11 13:04:52;;;;;;;2.78;0.20;;;22.50;48.90;;;;;;5065903;28;20040;-60
2023/01/11 13:07:42;;;;;;;3.53;0.35;;;22.60;48.90;;;;;;5065123;28;20825;-60
2023/01/11 13:10:21;;;;;;;3.65;0.50;;;22.60;48.80;;;;;;5064713;28;20118;-60
2023/01/11 13:12:55;;;;;;;3.40;0.20;;;22.60;48.80;;;;;;5066463;28;20040;-59
2023/01/11 13:15:31;;;;;;;3.33;0.90;;;22.70;48.80;;;;;;5066416;28;20504;-60
2023/01/11 13:18:08;;;;;;;2.40;0.82;;;22.70;48.60;;;;;;5066203;28;20048;-61
2023/01/11 13:20:44;;;;;;;4.88;0.30;;;22.70;48.50;;;;;;5062725;28;20115;-59
2023/01/11 13:23:14;;;;;;;;;;;22.70;48.40;;;;;;5066227;28;20115;-60
2023/01/11 13:25:46;;;;;;;2.45;0.55;;;22.70;48.50;;;;;;5066091;28;20343;-59
2023/01/11 13:28:30;;;;;;;0.50;0.28;;;22.70;48.40;;;;;;5058737;28;20778;-59
2023/01/11 13:30:59;;;;;;;3.72;0.20;;;22.80;48.20;;;;;;5065460;28;20548;-61
2023/01/11 13:33:30;;;;;;;10.07;0.85;;;22.80;48.20;;;;;;5066430;28;20044;-62
2023/01/11 13:36:02;;;;;;;4.90;0.20;;;22.80;48.10;;;;;;5065853;28;20109;-62
2023/01/11 13:38:39;;;;;;;3.67;0.17;;;22.80;48.00;;;;;;5065854;28;20512;-59